Time;durP1;ratioP1;P1;durP2;ratioP2;P2;SDS_P1;SDS_P2;PMS_P1;PMS_P2;Temp;Humidity;BMP_temperature;BMP_pressure;BME280_temperature;BME280_humidity;BME280_pressure;Samples;Min_cycle;Max_cycle;Signal;HPM_P1;HPM_P2
2021/09/13 00:00:26;;;;;;;11.57;8.57;;;;;;;18.89;81.83;100680.39;4863536;59;1138779;-79
2021/09/13 00:05:34;;;;;;;9.50;7.70;;;;;;;18.97;82.15;100676.35;4881416;59;1141062;-77
2021/09/13 00:10:43;;;;;;;25.88;10.13;;;;;;;19.05;82.05;100668.81;4881575;59;1138778;-77
2021/09/13 00:15:49;;;;;;;29.27;12.50;;;;;;;19.11;81.97;100670.80;4881372;59;1142965;-77
2021/09/13 00:20:55;;;;;;;10.48;7.08;;;;;;;19.16;81.66;100668.45;4878475;59;1143059;-79
2021/09/13 00:26:01;;;;;;;9.75;8.00;;;;;;;19.14;81.25;100672.64;4869820;59;1141081;-79
2021/09/13 00:31:07;;;;;;;10.95;6.55;;;;;;;19.13;81.32;100673.64;4869987;59;1139020;-77
2021/09/13 00:36:14;;;;;;;14.43;7.83;;;;;;;18.99;80.77;100678.36;4881023;59;1140911;-79
2021/09/13 00:41:22;;;;;;;7.45;6.75;;;;;;;18.96;81.26;100674.17;4880341;59;1141059;-77
2021/09/13 00:46:28;;;;;;;8.50;7.20;;;;;;;18.92;80.93;100676.05;4877522;59;1138870;-77
2021/09/13 00:51:34;;;;;;;12.53;9.03;;;;;;;18.86;81.26;100672.69;4877423;59;1139026;-77
2021/09/13 00:56:42;;;;;;;8.15;7.20;;;;;;;18.87;81.59;100677.04;4862825;59;1141156;-79
2021/09/13 01:01:48;;;;;;;7.22;6.53;;;;;;;18.77;80.55;100680.41;4803453;60;1138805;-79
2021/09/13 01:06:53;;;;;;;9.43;8.10;;;;;;;18.57;80.47;100677.18;4784336;60;1138791;-78
2021/09/13 01:11:59;;;;;;;7.90;7.22;;;;;;;18.46;81.13;100681.03;4784413;60;1138832;-79
2021/09/13 01:17:07;;;;;;;12.98;8.18;;;;;;;18.47;81.79;100672.50;4784260;60;1138860;-76
2021/09/13 01:22:15;;;;;;;7.28;6.47;;;;;;;18.48;81.78;100672.84;4784127;60;1140967;-80
2021/09/13 01:27:22;;;;;;;8.93;8.03;;;;;;;18.47;81.65;100673.34;4782474;61;1138819;-77
2021/09/13 01:32:28;;;;;;;11.33;8.53;;;;;;;18.41;81.56;100667.30;4784417;60;1138837;-79
2021/09/13 01:37:36;;;;;;;8.76;7.86;;;;;;;18.38;82.11;100662.27;4784680;60;1141076;-78
2021/09/13 01:42:46;;;;;;;10.82;7.60;;;;;;;18.38;82.04;100659.58;4822547;60;1138812;-79
2021/09/13 01:47:52;;;;;;;9.05;8.15;;;;;;;18.39;82.12;100657.25;4856094;60;1140894;-78
2021/09/13 01:52:58;;;;;;;8.15;7.35;;;;;;;18.41;82.21;100655.24;4856184;60;1138835;-78
2021/09/13 01:58:04;;;;;;;9.07;7.97;;;;;;;18.37;81.92;100653.05;4856584;60;1138840;-78
2021/09/13 02:03:11;;;;;;;10.93;7.47;;;;;;;18.24;81.89;100656.22;4856534;60;1139013;-78
2021/09/13 02:08:25;;;;;;;13.85;7.70;;;;;;;18.21;82.09;100656.55;4856134;60;1140899;-79
2021/09/13 02:13:31;;;;;;;10.10;9.06;;;;;;;18.23;82.40;100652.70;4855584;60;1189759;-78
2021/09/13 02:18:37;;;;;;;13.92;9.86;;;;;;;18.29;82.58;100659.25;4856288;60;1140957;-79
2021/09/13 02:23:44;;;;;;;14.80;9.33;;;;;;;18.32;82.55;100660.27;4856207;60;1140939;-78
2021/09/13 02:28:50;;;;;;;12.43;10.10;;;;;;;18.37;82.22;100654.39;4856503;60;1140928;-78
2021/09/13 02:33:57;;;;;;;12.73;7.47;;;;;;;18.39;81.80;100659.92;4855947;60;1142975;-77
2021/09/13 02:39:04;;;;;;;9.63;7.27;;;;;;;18.22;80.96;100664.91;4856023;60;1141034;-80
2021/09/13 02:44:11;;;;;;;9.13;8.23;;;;;;;17.97;81.09;100668.05;4805765;60;1138999;-77
2021/09/13 02:49:17;;;;;;;8.37;7.53;;;;;;;17.78;81.49;100675.84;4794082;60;1139076;-77
2021/09/13 02:54:23;;;;;;;9.57;8.20;;;;;;;17.64;81.89;100672.94;4793949;60;1138789;-79
2021/09/13 02:59:29;;;;;;;9.77;8.77;;;;;;;17.53;82.17;100671.37;4796421;60;1139035;-78
2021/09/13 03:04:34;;;;;;;12.13;9.53;;;;;;;17.53;82.68;100676.72;4852345;59;1139042;-77
2021/09/13 03:09:42;;;;;;;9.10;8.15;;;;;;;17.52;83.13;100674.54;4880867;59;1140951;-78
2021/09/13 03:14:48;;;;;;;11.53;9.10;;;;;;;17.60;83.25;100675.06;4881777;59;1139001;-78
2021/09/13 03:19:53;;;;;;;12.50;9.63;;;;;;;17.69;83.44;100679.50;4881076;59;1141031;-78
2021/09/13 03:24:59;;;;;;;10.13;9.13;;;;;;;17.72;82.96;100676.48;4881518;59;1140852;-76
2021/09/13 03:30:07;;;;;;;12.53;9.70;;;;;;;17.74;82.96;100677.16;4880611;59;1140970;-77
2021/09/13 03:35:13;;;;;;;19.20;10.43;;;;;;;17.74;82.37;100679.83;4881339;59;1140905;-78
2021/09/13 03:40:20;;;;;;;13.23;9.77;;;;;;;17.75;82.32;100685.52;4881323;59;1142925;-78
2021/09/13 03:45:26;;;;;;;17.03;10.03;;;;;;;17.72;82.08;100683.69;4882241;59;1141085;-76
2021/09/13 03:50:51;;;;;;;22.57;10.03;;;;;;;17.63;82.14;100688.12;4902973;58;1142837;-77
2021/09/13 03:55:57;;;;;;;22.85;10.72;;;;;;;17.66;82.27;100685.66;4881901;58;1143042;-78
2021/09/13 04:01:03;;;;;;;18.53;11.63;;;;;;;17.68;82.25;100683.17;4881255;59;1143060;-77
2021/09/13 04:06:18;;;;;;;12.87;10.50;;;;;;;17.71;82.38;100680.67;4881385;59;1142926;-75
2021/09/13 04:11:23;;;;;;;14.30;9.90;;;;;;;17.70;82.28;100681.17;4909494;59;1142823;-80
2021/09/13 04:16:40;;;;;;;10.33;9.23;;;;;;;17.62;81.87;100679.75;4911369;58;1140747;-79
2021/09/13 04:21:55;;;;;;;11.07;9.77;;;;;;;17.46;81.78;100681.85;4910244;59;1140776;-77
2021/09/13 04:27:19;;;;;;;15.70;10.20;;;;;;;17.29;82.18;100686.77;4912962;59;1140993;-79
2021/09/13 04:32:26;;;;;;;10.77;9.67;;;;;;;17.13;82.65;100681.31;4912016;58;1142831;-79
2021/09/13 04:37:50;;;;;;;16.67;9.85;;;;;;;17.13;83.28;100677.30;4913637;59;1140809;-76
2021/09/13 04:43:03;;;;;;;10.10;9.10;;;;;;;17.17;83.20;100685.36;4906512;58;1140866;-78
2021/09/13 04:48:14;;;;;;;10.97;9.70;;;;;;;17.25;83.72;100678.75;4906642;59;1140792;-78
2021/09/13 04:53:23;;;;;;;10.97;9.60;;;;;;;17.09;83.07;100692.84;4906456;59;1140831;-78
2021/09/13 04:58:30;;;;;;;9.57;8.53;;;;;;;16.85;83.30;100699.33;4906333;59;1141031;-79
2021/09/13 05:03:36;;;;;;;11.63;9.23;;;;;;;16.70;83.54;100704.87;4906615;59;1138773;-76
2021/09/13 05:08:42;;;;;;;12.13;9.33;;;;;;;16.60;84.03;100701.42;4902978;59;1141012;-76
2021/09/13 05:13:51;;;;;;;12.23;10.30;;;;;;;16.56;84.79;100701.38;4883731;59;1140832;-78
2021/09/13 05:18:57;;;;;;;11.68;9.73;;;;;;;16.57;85.36;100713.74;4883645;59;1143111;-78
2021/09/13 05:24:03;;;;;;;11.30;10.10;;;;;;;16.57;85.76;100712.41;4883597;59;1140896;-75
2021/09/13 05:29:09;;;;;;;10.67;9.57;;;;;;;16.60;86.23;100704.09;4850600;59;1143280;-78
2021/09/13 05:34:16;;;;;;;11.07;8.90;;;;;;;16.65;86.87;100711.20;4883382;59;1141047;-78
2021/09/13 05:39:22;;;;;;;12.53;10.87;;;;;;;16.68;87.04;100710.37;4883657;59;1140840;-77
2021/09/13 05:44:31;;;;;;;12.90;8.43;;;;;;;16.72;87.59;100713.58;4881456;59;1142943;-77
2021/09/13 05:49:38;;;;;;;17.10;10.00;;;;;;;16.79;88.75;100710.16;4879800;59;1140974;-78
2021/09/13 05:54:46;;;;;;;11.47;10.03;;;;;;;16.86;88.76;100719.70;4870117;59;1143151;-77
2021/09/13 05:59:52;;;;;;;10.80;9.68;;;;;;;16.93;89.18;100724.78;4871655;59;1143130;-79
2021/09/13 06:05:00;;;;;;;11.25;9.25;;;;;;;17.00;89.82;100724.49;4881366;59;1141062;-79
2021/09/13 06:10:06;;;;;;;10.73;9.60;;;;;;;17.05;90.26;100730.72;4881098;59;1140888;-76
2021/09/13 06:15:13;;;;;;;20.47;9.33;;;;;;;17.07;91.17;100725.56;4880716;59;1140877;-78
2021/09/13 06:20:22;;;;;;;9.97;7.97;;;;;;;17.16;91.31;100729.13;4880939;59;1140877;-76
2021/09/13 06:25:30;;;;;;;11.10;9.13;;;;;;;17.24;92.15;100726.52;4881763;59;1138769;-79
2021/09/13 06:30:36;;;;;;;9.33;8.43;;;;;;;17.30;91.32;100730.38;4881623;59;1140948;-79
2021/09/13 06:35:43;;;;;;;9.00;7.63;;;;;;;17.25;90.83;100731.37;4881989;59;1138926;-78
2021/09/13 06:40:50;;;;;;;13.32;8.48;;;;;;;17.25;91.09;100734.05;4869452;59;1138770;-79
2021/09/13 06:46:10;;;;;;;8.83;7.93;;;;;;;17.24;90.87;100737.21;4805791;59;1140839;-76
2021/09/13 06:51:06;;;;;;;7.00;5.70;;;;;;;17.31;90.71;100746.27;4803339;59;1138931;-78
2021/09/13 06:56:14;;;;;;;8.07;6.80;;;;;;;17.42;89.84;100747.33;4805396;59;1138725;-77
2021/09/13 07:01:23;;;;;;;8.60;5.77;;;;;;;17.56;89.71;100753.47;4805640;59;1138725;-77
2021/09/13 07:06:29;;;;;;;7.53;5.60;;;;;;;17.76;89.06;100754.58;4805412;59;1138802;-77
2021/09/13 07:11:35;;;;;;;7.97;5.90;;;;;;;17.85;87.85;100755.82;4803637;59;1138913;-76
2021/09/13 07:16:42;;;;;;;8.30;5.40;;;;;;;17.86;87.48;100750.81;4799958;59;1139127;-78
2021/09/13 07:21:49;;;;;;;6.33;5.30;;;;;;;18.05;87.45;100760.39;4772062;59;1138983;-78
2021/09/13 07:26:55;;;;;;;6.72;4.87;;;;;;;18.19;86.42;100764.30;4784765;59;1138943;-77
2021/09/13 07:32:02;;;;;;;5.55;4.55;;;;;;;18.26;85.40;100772.87;4784943;59;1139005;-78
2021/09/13 07:37:07;;;;;;;5.57;5.07;;;;;;;18.28;85.23;100774.89;4784703;59;1139296;-77
2021/09/13 07:42:13;;;;;;;8.77;5.80;;;;;;;18.27;84.82;100773.20;4816883;59;1138870;-78
2021/09/13 07:47:19;;;;;;;8.83;5.80;;;;;;;18.29;84.20;100767.69;4860687;59;1138860;-78
2021/09/13 07:52:25;;;;;;;5.62;4.53;;;;;;;18.40;83.72;100774.08;4860716;59;1138765;-79
2021/09/13 07:57:31;;;;;;;4.50;4.12;;;;;;;18.59;83.98;100777.01;4860499;59;1138994;-77
2021/09/13 08:02:37;;;;;;;10.80;4.35;;;;;;;18.66;82.50;100774.48;4860696;59;1138758;-76
2021/09/13 08:07:43;;;;;;;4.55;4.00;;;;;;;18.73;81.96;100774.18;4860626;59;1140908;-79
2021/09/13 08:12:49;;;;;;;3.83;3.52;;;;;;;18.94;81.87;100785.27;4860747;59;1138946;-77
2021/09/13 08:17:55;;;;;;;4.17;3.85;;;;;;;19.18;81.12;100783.08;4858046;59;1138916;-78
2021/09/13 08:23:03;;;;;;;2.90;2.65;;;;;;;19.35;80.89;100782.57;4848825;59;1138795;-78
2021/09/13 08:28:12;;;;;;;2.98;2.55;;;;;;;19.59;78.67;100790.09;4848638;59;1139142;-78
2021/09/13 08:33:17;;;;;;;5.95;3.45;;;;;;;19.72;77.13;100793.58;4848378;59;1138919;-76
2021/09/13 08:38:23;;;;;;;6.17;2.47;;;;;;;19.85;75.43;100799.78;4848823;59;1138916;-78
2021/09/13 08:43:30;;;;;;;5.50;2.85;;;;;;;19.95;72.96;100799.07;4846125;59;1139132;-78
2021/09/13 08:48:42;;;;;;;2.62;2.42;;;;;;;19.93;72.13;100806.45;4845895;60;1138760;-78
2021/09/13 08:53:50;;;;;;;5.12;2.72;;;;;;;19.88;71.50;100815.52;4845899;60;1139063;-77
2021/09/13 08:58:53;;;;;;;3.03;2.83;;;;;;;19.92;72.43;100819.05;4846456;60;1139083;-78
2021/09/13 09:04:00;;;;;;;5.33;2.47;;;;;;;19.93;72.54;100820.72;4856185;60;1138848;-76
2021/09/13 09:09:18;;;;;;;5.78;3.15;;;;;;;20.00;72.44;100824.91;4855883;60;1138766;-78
2021/09/13 09:14:28;;;;;;;3.47;3.17;;;;;;;20.14;72.42;100822.84;4856336;60;1139011;-78
2021/09/13 09:19:34;;;;;;;4.46;2.50;;;;;;;20.18;72.10;100827.34;4877117;59;1138766;-76
2021/09/13 09:24:40;;;;;;;4.25;2.62;;;;;;;20.30;72.45;100820.59;4866935;59;1138996;-85
2021/09/13 09:29:46;;;;;;;4.20;2.86;;;;;;;20.40;70.04;100818.56;4854436;59;1138918;-85
2021/09/13 09:34:53;;;;;;;2.80;2.62;;;;;;;20.30;69.41;100821.94;4835266;59;1139088;-85
2021/09/13 09:40:02;;;;;;;5.80;2.40;;;;;;;20.17;69.04;100828.34;4832044;59;1139026;-83
2021/09/13 09:45:17;;;;;;;2.55;2.35;;;;;;;20.11;68.40;100830.40;4833929;59;1139053;-82
2021/09/13 09:50:30;;;;;;;3.08;2.83;;;;;;;20.47;69.30;100818.17;4833855;59;1138927;-83
2021/09/13 09:55:36;;;;;;;2.70;2.45;;;;;;;20.47;69.30;100818.17;4861062;59;1139014;-86
2021/09/13 10:00:49;;;;;;;5.62;2.42;;;;;;;20.70;69.27;100812.84;4890581;59;1139052;-86
2021/09/13 10:05:54;;;;;;;;;;;;;;;20.97;69.82;100815.52;4867243;59;1139033;-85
2021/09/13 10:11:01;;;;;;;3.45;1.87;;;;;;;21.08;67.45;100816.47;4888461;59;976181;-84
2021/09/13 10:16:08;;;;;;;2.24;2.04;;;;;;;21.08;66.49;100821.30;4875985;59;1136819;-85
2021/09/13 10:21:14;;;;;;;3.02;1.98;;;;;;;21.06;64.32;100823.87;4865585;59;1138922;-88
2021/09/13 10:26:21;;;;;;;5.58;1.95;;;;;;;21.13;64.48;100822.12;4865056;59;1138884;-86
2021/09/13 10:31:49;;;;;;;3.27;1.80;;;;;;;21.26;64.15;100825.06;4865509;59;1138789;-87
2021/09/13 10:37:19;;;;;;;6.27;1.70;;;;;;;21.30;62.68;100829.08;4702839;62;1139279;-82
2021/09/13 10:42:47;;;;;;;2.10;1.75;;;;;;;21.08;63.75;100835.80;4702840;61;1139040;-84
2021/09/13 10:48:00;;;;;;;5.62;2.10;;;;;;;20.89;64.31;100846.51;4702911;61;1139322;-90
2021/09/13 10:53:22;;;;;;;6.05;2.42;;;;;;;20.79;64.09;100837.31;4702739;61;1139155;-87
2021/09/13 10:58:50;;;;;;;4.65;2.30;;;;;;;20.68;65.07;100837.72;4702040;61;1139250;-84
2021/09/13 11:04:04;;;;;;;10.45;2.12;;;;;;;20.66;65.26;100835.71;4700129;61;1139218;-87
2021/09/13 11:09:14;;;;;;;2.45;2.12;;;;;;;20.66;65.81;100845.12;4702595;61;1141191;-82
2021/09/13 11:14:22;;;;;;;3.17;1.95;;;;;;;20.65;64.25;100840.25;4783239;60;1138953;-86
2021/09/13 11:19:29;;;;;;;4.05;2.45;;;;;;;20.77;62.32;100838.02;4807107;58;1138891;-87
2021/09/13 11:24:39;;;;;;;2.58;2.37;;;;;;;20.58;62.86;100838.45;4836921;58;1138885;-88
2021/09/13 11:29:48;;;;;;;3.40;2.37;;;;;;;20.43;62.32;100842.39;4878498;59;1138955;-85
2021/09/13 11:34:55;;;;;;;6.40;2.60;;;;;;;20.49;62.25;100848.89;4878161;59;1139018;-86
2021/09/13 11:40:03;;;;;;;6.17;2.30;;;;;;;20.70;61.53;100842.41;4878131;59;1139011;-84
2021/09/13 11:45:16;;;;;;;1.92;1.82;;;;;;;21.03;62.20;100836.33;4829525;60;1138832;-89
2021/09/13 11:50:22;;;;;;;3.40;2.40;;;;;;;21.17;61.31;100839.58;4829484;60;1138876;-84
2021/09/13 11:55:29;;;;;;;2.35;2.10;;;;;;;21.07;60.45;100859.17;4883639;59;1138876;-86
2021/09/13 12:00:36;;;;;;;3.55;1.77;;;;;;;21.01;62.03;100855.33;4904894;59;1138972;-86
2021/09/13 12:05:43;;;;;;;3.24;1.82;;;;;;;21.23;60.73;100844.28;4896012;59;1138956;-86
2021/09/13 12:10:51;;;;;;;2.77;1.98;;;;;;;21.16;60.78;100851.36;4905932;59;1138898;-89
2021/09/13 12:15:57;;;;;;;1.40;1.25;;;;;;;21.00;61.00;100856.84;4906516;59;1139015;-86
2021/09/13 12:21:03;;;;;;;3.70;1.85;;;;;;;20.89;61.50;100867.52;4879425;58;1138917;-89
2021/09/13 12:26:09;;;;;;;6.25;2.60;;;;;;;20.91;62.51;100862.80;4885022;58;1139001;-88
2021/09/13 12:31:18;;;;;;;3.98;2.10;;;;;;;21.02;63.07;100858.86;4885174;58;1138900;-82
2021/09/13 12:36:26;;;;;;;3.45;1.80;;;;;;;20.71;62.38;100859.71;4883147;58;1139080;-83
2021/09/13 12:41:41;;;;;;;2.10;1.87;;;;;;;20.71;62.38;100859.71;4877741;58;1139084;-83
2021/09/13 12:46:55;;;;;;;2.34;1.52;;;;;;;20.62;63.10;100864.78;4846640;58;1138913;-87
2021/09/13 12:52:07;;;;;;;2.77;1.85;;;;;;;20.60;63.05;100862.80;4845286;59;1139152;-86
2021/09/13 12:57:13;;;;;;;1.80;1.10;;;;;;;20.94;62.54;100860.23;4844959;58;1138791;-85
2021/09/13 13:02:19;;;;;;;1.20;0.82;;;;;;;21.11;60.55;100865.00;4843274;59;1139078;-84
2021/09/13 13:07:25;;;;;;;1.95;1.30;;;;;;;21.07;60.13;100863.20;4823650;59;1138918;-85
2021/09/13 13:12:30;;;;;;;2.40;1.45;;;;;;;21.00;60.57;100867.60;4844226;58;1138880;-85
2021/09/13 13:17:36;;;;;;;10.65;1.60;;;;;;;20.92;60.66;100859.61;4808530;59;1138851;-87
2021/09/13 13:22:42;;;;;;;1.20;1.10;;;;;;;20.87;61.43;100863.32;4820705;59;1141133;-87
2021/09/13 13:27:48;;;;;;;1.07;0.98;;;;;;;20.91;60.64;100861.45;4807784;59;1138894;-85
2021/09/13 13:32:54;;;;;;;2.47;1.02;;;;;;;20.89;58.77;100864.83;4809308;59;1138914;-85
2021/09/13 13:37:59;;;;;;;0.55;0.55;;;;;;;20.97;60.91;100856.69;4809317;59;1138864;-88
2021/09/13 13:43:06;;;;;;;1.43;0.63;;;;;;;21.02;59.92;100854.82;4813182;59;1138902;-87
2021/09/13 13:48:12;;;;;;;1.05;0.60;;;;;;;20.96;60.20;100857.70;4813131;59;1138881;-85
2021/09/13 13:53:18;;;;;;;3.60;0.70;;;;;;;20.93;59.81;100851.33;4817211;59;1138725;-85
2021/09/13 13:58:23;;;;;;;2.17;1.12;;;;;;;21.20;59.81;100856.75;4817251;59;1138727;-88
2021/09/13 14:03:28;;;;;;;1.27;1.00;;;;;;;21.25;60.26;100853.49;4817073;59;1138792;-84
2021/09/13 14:08:35;;;;;;;2.15;1.00;;;;;;;21.28;60.49;100853.14;4817293;59;1138775;-86
2021/09/13 14:13:40;;;;;;;4.75;1.07;;;;;;;21.29;60.71;100850.78;4817112;59;1139069;-87
2021/09/13 14:18:46;;;;;;;1.20;1.10;;;;;;;21.31;59.85;100854.97;4817148;59;1138821;-87
2021/09/13 14:23:52;;;;;;;3.20;1.20;;;;;;;21.34;60.60;100856.47;4817073;59;1138811;-88
2021/09/13 14:28:58;;;;;;;1.65;1.20;;;;;;;21.40;60.54;100847.66;4817108;59;1138897;-84
2021/09/13 14:34:04;;;;;;;4.10;0.80;;;;;;;21.47;60.72;100854.50;4817115;59;1138971;-87
2021/09/13 14:39:10;;;;;;;1.20;0.85;;;;;;;21.43;59.73;100856.72;4817060;59;1138782;-88
2021/09/13 14:44:15;;;;;;;3.90;1.37;;;;;;;21.41;60.24;100848.81;4880671;59;1138884;-85
2021/09/13 14:49:21;;;;;;;4.12;1.20;;;;;;;21.37;60.53;100851.56;4893488;59;1138772;-86
2021/09/13 14:54:27;;;;;;;2.50;0.53;;;;;;;21.43;60.90;100859.91;4893534;59;1139196;-87
2021/09/13 14:59:33;;;;;;;0.80;0.50;;;;;;;21.50;59.75;100856.84;4893296;58;1138732;-85
2021/09/13 15:04:39;;;;;;;4.67;0.80;;;;;;;21.47;60.76;100857.19;4885479;58;1138668;-86
2021/09/13 15:09:46;;;;;;;3.15;1.00;;;;;;;21.31;60.46;100861.69;4890658;59;1138831;-88
2021/09/13 15:14:51;;;;;;;2.17;0.78;;;;;;;21.13;61.10;100870.53;4891945;59;1138715;-85
2021/09/13 15:20:02;;;;;;;1.07;0.72;;;;;;;20.98;61.33;100863.75;4889796;59;1138899;-85
2021/09/13 15:25:06;;;;;;;1.20;1.00;;;;;;;20.89;61.98;100868.86;4887380;59;1138860;-85
2021/09/13 15:30:15;;;;;;;0.78;0.78;;;;;;;20.71;61.59;100866.94;4847408;60;1138844;-84
2021/09/13 15:35:20;;;;;;;0.62;0.62;;;;;;;20.49;62.06;100865.86;4859800;59;1138803;-83
2021/09/13 15:40:26;;;;;;;1.62;0.90;;;;;;;20.43;62.43;100867.08;4830502;59;1138793;-87
2021/09/13 15:45:32;;;;;;;7.17;1.25;;;;;;;20.33;62.94;100869.42;4772741;60;1138716;-88
2021/09/13 15:50:39;;;;;;;3.47;1.00;;;;;;;20.33;63.76;100867.23;4773234;60;1138902;-88
2021/09/13 15:55:45;;;;;;;3.17;0.88;;;;;;;20.26;63.97;100869.80;4773172;60;1138752;-86
2021/09/13 16:00:50;;;;;;;3.05;1.05;;;;;;;20.22;64.31;100870.30;4773174;60;1138786;-88
2021/09/13 16:05:56;;;;;;;10.70;1.37;;;;;;;20.06;64.52;100868.50;4772931;60;1138836;-89
2021/09/13 16:11:02;;;;;;;1.02;0.80;;;;;;;19.92;64.98;100870.55;4794100;60;1140953;-86
2021/09/13 16:16:08;;;;;;;1.10;1.05;;;;;;;19.86;65.04;100869.91;4851947;59;1138802;-85
2021/09/13 16:21:16;;;;;;;10.05;2.10;;;;;;;19.85;65.43;100869.58;4851874;59;1138910;-86
2021/09/13 16:26:21;;;;;;;1.40;1.27;;;;;;;19.79;65.64;100868.41;4851600;59;1140797;-88
2021/09/13 16:31:29;;;;;;;1.67;1.57;;;;;;;19.76;65.87;100866.05;4851879;58;1138867;-83
2021/09/13 16:36:34;;;;;;;1.52;1.37;;;;;;;19.76;66.34;100867.89;4851239;59;1138812;-83
2021/09/13 16:41:40;;;;;;;6.03;1.90;;;;;;;19.73;66.38;100870.91;4851368;58;1138824;-82
2021/09/13 16:46:46;;;;;;;3.65;2.27;;;;;;;19.70;66.61;100869.44;4851214;59;1138861;-85
2021/09/13 16:51:52;;;;;;;7.80;1.70;;;;;;;19.67;66.85;100868.42;4850959;60;1138968;-82
2021/09/13 16:56:57;;;;;;;9.08;2.00;;;;;;;19.64;66.99;100868.25;4849711;60;1138920;-83
2021/09/13 17:02:04;;;;;;;3.75;2.00;;;;;;;19.61;67.10;100870.42;4851263;60;1138756;-84
2021/09/13 17:07:10;;;;;;;500.10;385.00;;;;;;;19.53;67.26;100875.31;4850807;60;1138957;-83
2021/09/13 17:12:16;;;;;;;25.25;18.40;;;;;;;19.51;67.35;100869.77;4849793;59;1147072;-84
2021/09/13 17:17:23;;;;;;;10.75;6.15;;;;;;;19.45;67.33;100867.72;4850381;59;1142918;-83
2021/09/13 17:22:29;;;;;;;10.68;4.80;;;;;;;19.42;67.42;100870.73;4850671;60;1141058;-85
2021/09/13 17:27:35;;;;;;;254.07;117.35;;;;;;;19.42;67.70;100875.59;4849872;59;1140849;-82
2021/09/13 17:32:41;;;;;;;148.35;73.85;;;;;;;19.32;67.58;100883.81;4794078;60;1147095;-83
2021/09/13 17:37:47;;;;;;;31.30;14.78;;;;;;;19.22;67.68;100882.30;4827765;58;1144954;-84
2021/09/13 17:42:53;;;;;;;7.12;4.00;;;;;;;19.18;67.74;100895.70;4862966;60;1143022;-85
2021/09/13 17:47:59;;;;;;;3.58;2.67;;;;;;;19.05;67.81;100896.69;4863559;60;1138758;-84
2021/09/13 17:53:05;;;;;;;3.60;2.67;;;;;;;18.92;67.88;100898.51;4863554;59;1138743;-84
2021/09/13 17:58:11;;;;;;;3.67;2.47;;;;;;;18.84;68.30;100911.87;4863607;59;1138868;-84
2021/09/13 18:03:17;;;;;;;3.20;2.67;;;;;;;18.72;68.41;100922.05;4863460;59;1138785;-82
2021/09/13 18:08:23;;;;;;;7.15;3.15;;;;;;;18.68;68.68;100932.75;4842337;60;1138798;-85
2021/09/13 18:13:28;;;;;;;5.30;3.80;;;;;;;18.76;69.16;100935.97;4848814;60;1139311;-84
2021/09/13 18:18:35;;;;;;;12.23;4.95;;;;;;;18.83;69.27;100937.83;4861261;60;1138957;-85
2021/09/13 18:23:43;;;;;;;12.70;4.04;;;;;;;18.89;69.21;100937.69;4856969;60;1157225;-86
2021/09/13 18:28:48;;;;;;;9.90;4.00;;;;;;;18.91;69.12;100933.02;4804446;59;1140909;-84
2021/09/13 18:33:54;;;;;;;11.40;5.77;;;;;;;19.01;69.05;100942.24;4830379;59;1138948;-85
2021/09/13 18:39:02;;;;;;;8.70;5.77;;;;;;;19.02;68.81;100944.77;4834899;59;1140907;-89
2021/09/13 18:44:07;;;;;;;15.78;7.97;;;;;;;18.97;68.69;100945.74;4804726;60;1138695;-86
2021/09/13 18:49:13;;;;;;;14.65;9.45;;;;;;;18.83;68.60;100953.91;4895382;59;1140841;-85
2021/09/13 18:54:18;;;;;;;22.70;11.80;;;;;;;18.75;69.02;100963.77;4895478;59;1140910;-89
2021/09/13 18:59:26;;;;;;;22.42;12.20;;;;;;;18.69;69.29;100965.73;4895687;59;1142924;-89
2021/09/13 19:04:31;;;;;;;23.35;10.93;;;;;;;18.62;69.43;100961.54;4892107;59;1142960;-86
2021/09/13 19:09:38;;;;;;;23.22;11.85;;;;;;;18.59;69.79;100964.03;4891707;59;1142956;-87
2021/09/13 19:14:45;;;;;;;27.00;13.60;;;;;;;18.58;69.59;100961.02;4895313;59;1142957;-85
2021/09/13 19:19:51;;;;;;;28.17;13.60;;;;;;;18.58;69.80;100971.73;4895229;59;1143016;-88
2021/09/13 19:24:59;;;;;;;19.07;11.93;;;;;;;18.52;69.55;100972.32;4894705;59;1142937;-92
2021/09/13 19:30:06;;;;;;;28.87;13.53;;;;;;;18.49;69.82;100976.66;4894964;59;1142915;-88
2021/09/13 19:35:12;;;;;;;35.98;16.32;;;;;;;18.43;69.70;100984.00;4895365;59;1143181;-88
2021/09/13 19:40:18;;;;;;;46.62;15.36;;;;;;;18.38;69.95;100992.16;4844848;59;1143281;-89
2021/09/13 19:45:24;;;;;;;53.48;15.53;;;;;;;18.32;69.88;100988.79;4862410;59;1142984;-89
2021/09/13 19:50:31;;;;;;;40.30;14.60;;;;;;;18.23;69.75;100997.25;4895616;59;1143069;-90
2021/09/13 19:55:38;;;;;;;38.97;14.30;;;;;;;18.14;69.59;100996.86;4895090;59;1143019;-87
2021/09/13 20:00:44;;;;;;;48.03;14.43;;;;;;;18.05;69.34;100996.44;4894966;59;1143171;-85
2021/09/13 20:05:49;;;;;;;32.90;12.95;;;;;;;17.84;69.12;101008.34;4886869;58;1143122;-89
2021/09/13 20:10:55;;;;;;;33.92;12.75;;;;;;;17.62;69.01;101014.60;4894871;59;1142992;-89
2021/09/13 20:16:00;;;;;;;23.80;11.13;;;;;;;17.38;69.59;101016.55;4990065;59;21169;-89
2021/09/13 20:21:06;;;;;;;14.17;7.17;;;;;;;17.21;70.31;101017.70;4989911;59;21201;-89
2021/09/13 20:26:12;;;;;;;7.53;4.93;;;;;;;17.14;70.83;101015.26;4990641;59;21201;-85
2021/09/13 20:31:18;;;;;;;5.37;3.97;;;;;;;16.90;70.73;101024.82;4991153;59;21179;-87
2021/09/13 20:36:25;;;;;;;10.80;5.03;;;;;;;16.65;71.08;101021.80;4969971;59;21619;-87
2021/09/13 20:41:31;;;;;;;8.40;4.33;;;;;;;16.60;72.14;101025.39;4960035;60;21221;-89
2021/09/13 20:46:37;;;;;;;16.23;6.60;;;;;;;16.67;72.60;101025.17;4960286;60;21174;-87
2021/09/13 20:51:42;;;;;;;14.27;7.47;;;;;;;16.75;72.83;101023.13;4960006;59;21166;-90
2021/09/13 20:56:48;;;;;;;29.97;9.80;;;;;;;16.74;73.19;101026.29;4960036;60;21222;-88
2021/09/13 21:01:55;;;;;;;27.90;10.53;;;;;;;16.88;73.87;101034.31;4960096;60;21178;-89
2021/09/13 21:07:01;;;;;;;31.37;10.53;;;;;;;17.05;73.86;101036.70;4959698;60;21676;-88
2021/09/13 21:12:07;;;;;;;22.57;9.87;;;;;;;17.19;73.72;101036.20;4959783;60;21123;-90
2021/09/13 21:17:13;;;;;;;20.27;8.97;;;;;;;17.18;73.11;101039.38;4959891;60;21189;-91
2021/09/13 21:22:20;;;;;;;22.47;8.33;;;;;;;17.13;73.25;101042.98;4959763;60;21592;-89
2021/09/13 21:27:27;;;;;;;9.30;5.70;;;;;;;17.04;73.75;101039.88;4959903;60;21525;-86
2021/09/13 21:32:33;;;;;;;7.13;4.77;;;;;;;17.00;73.84;101046.98;4959699;60;21166;-86
2021/09/13 21:37:40;;;;;;;14.43;5.20;;;;;;;16.90;73.96;101048.38;4984468;59;21663;-91
2021/09/13 21:42:45;;;;;;;11.37;4.97;;;;;;;16.83;74.39;101044.59;4950137;59;21176;-89
2021/09/13 21:47:51;;;;;;;13.97;4.17;;;;;;;16.91;74.93;101044.72;4913342;60;21185;-91
2021/09/13 21:52:57;;;;;;;8.57;4.93;;;;;;;16.91;74.93;101042.05;4913097;60;21178;-91
2021/09/13 21:58:03;;;;;;;8.83;4.60;;;;;;;16.87;75.01;101048.66;4913689;60;21133;-90
2021/09/13 22:03:09;;;;;;;6.17;3.87;;;;;;;16.94;75.37;101051.11;4913615;60;21177;-88
2021/09/13 22:08:15;;;;;;;10.47;3.83;;;;;;;16.98;75.41;101058.31;4913555;60;21181;-90
2021/09/13 22:13:22;;;;;;;5.60;3.80;;;;;;;17.02;75.66;101047.19;4913392;60;21232;-86
2021/09/13 22:18:27;;;;;;;6.70;3.73;;;;;;;17.08;75.90;101047.10;4913280;60;21188;-92
2021/09/13 22:23:33;;;;;;;10.57;4.00;;;;;;;16.95;75.06;101047.94;4913400;60;21189;-90
2021/09/13 22:28:38;;;;;;;4.53;4.03;;;;;;;16.81;75.49;101049.23;4913353;60;21118;-86
2021/09/13 22:33:44;;;;;;;3.77;3.17;;;;;;;16.78;75.69;101048.22;4913304;60;21200;-86
2021/09/13 22:38:50;;;;;;;11.83;3.73;;;;;;;16.81;76.12;101042.55;4886495;60;21213;-91
2021/09/13 22:43:55;;;;;;;6.60;4.30;;;;;;;16.75;75.39;101040.48;4941994;60;21470;-85
2021/09/13 22:49:01;;;;;;;9.27;3.97;;;;;;;16.60;75.31;101039.23;4960278;60;21505;-91
2021/09/13 22:54:07;;;;;;;11.00;5.40;;;;;;;16.42;75.16;101041.31;4960347;60;21170;-92
2021/09/13 22:59:12;;;;;;;54.53;33.40;;;;;;;16.28;75.75;101046.27;4960575;60;21126;-88
2021/09/13 23:04:18;;;;;;;19.40;9.63;;;;;;;16.32;76.35;101041.84;4960358;60;21207;-90
2021/09/13 23:09:26;;;;;;;22.03;11.40;;;;;;;16.42;76.50;101046.66;4960302;60;21190;-89